Time;durP1;ratioP1;P1;durP2;ratioP2;P2;SDS_P1;SDS_P2;PMS_P1;PMS_P2;Temp;Humidity;BMP_temperature;BMP_pressure;BME280_temperature;BME280_humidity;BME280_pressure;Samples;Min_cycle;Max_cycle;Signal;HPM_P1;HPM_P2
2022/10/18 00:02:10;;;;;;;48.15;15.10;;;;;;;;;;5051753;28;20044;-86
2022/10/18 00:04:55;;;;;;;67.68;16.45;;;;;;;;;;5050235;28;20036;-84
2022/10/18 00:07:39;;;;;;;43.05;15.52;;;;;;;;;;5051360;28;20087;-85
2022/10/18 00:10:24;;;;;;;37.30;13.88;;;;;;;;;;5051536;28;20091;-85
2022/10/18 00:13:09;;;;;;;55.97;14.32;;;;;;;;;;5037869;28;20048;-85
2022/10/18 00:15:55;;;;;;;32.55;13.20;;;;;;;;;;5049598;28;20501;-84
2022/10/18 00:18:40;;;;;;;40.97;14.30;;;;;;;;;;5051629;28;20035;-85
2022/10/18 00:21:26;;;;;;;43.75;14.43;;;;;;;;;;5051409;28;20504;-85
2022/10/18 00:24:11;;;;;;;41.53;13.20;;;;;;;;;;5050293;28;20102;-85
2022/10/18 00:26:55;;;;;;;60.85;15.82;;;;;;;;;;5050971;28;20052;-85
2022/10/18 00:29:40;;;;;;;43.33;14.70;;;;;;;;;;5051164;28;20087;-84
2022/10/18 00:32:24;;;;;;;55.85;14.35;;;;;;;;;;5051399;28;20504;-85
2022/10/18 00:35:09;;;;;;;54.92;14.85;;;;;;;;;;5053437;28;20048;-85
2022/10/18 00:37:54;;;;;;;41.78;14.98;;;;;;;;;;5054060;28;20484;-86
2022/10/18 00:40:38;;;;;;;34.72;13.88;;;;;;;;;;5054038;28;20117;-85
2022/10/18 00:43:23;;;;;;;40.08;13.45;;;;;;;;;;5053828;28;20128;-85
2022/10/18 00:46:07;;;;;;;55.83;14.38;;;;;;;;;;5054286;28;20566;-85
2022/10/18 00:48:53;;;;;;;37.17;13.32;;;;;;;;;;5053888;28;20084;-85
2022/10/18 00:52:04;;;;;;;35.58;13.98;;;;;;;;;;5054514;28;20479;-85
2022/10/18 00:54:50;;;;;;;40.60;13.75;;;;;;;;;;5043109;28;20605;-85
2022/10/18 00:57:34;;;;;;;53.88;14.10;;;;;;;;;;5053252;28;20508;-85
2022/10/18 01:00:19;;;;;;;45.92;12.82;;;;;;;;;;5053539;28;20500;-85
2022/10/18 01:03:05;;;;;;;51.78;13.15;;;;;;;;;;5053013;28;20137;-84
2022/10/18 01:05:49;;;;;;;47.00;14.00;;;;;;;;;;5054364;28;20044;-85
2022/10/18 01:08:44;;;;;;;31.58;12.45;;;;;;;;;;5045057;28;20052;-85
2022/10/18 01:11:32;;;;;;;46.83;12.63;;;;;;;;;;5054371;28;20114;-85
2022/10/18 01:14:41;;;;;;;29.52;12.63;;;12.50;99.90;;;;;;5053013;28;20101;-84
2022/10/18 01:17:33;;;;;;;41.05;12.60;;;;;;;;;;5053296;28;20040;-85
2022/10/18 01:20:18;;;;;;;29.98;12.68;;;;;;;;;;5056482;28;20040;-85
2022/10/18 01:23:02;;;;;;;37.72;12.50;;;;;;;;;;5053519;28;20067;-85
2022/10/18 01:25:59;;;;;;;44.50;12.85;;;;;;;;;;5052266;28;20036;-84
2022/10/18 01:29:01;;;;;;;43.13;12.73;;;;;;;;;;5066889;28;20090;-84
2022/10/18 01:31:49;;;;;;;24.70;12.48;;;;;;;;;;5067322;28;20465;-84
2022/10/18 01:34:35;;;;;;;32.95;13.60;;;;;;;;;;5053764;28;20079;-85
2022/10/18 01:37:21;;;;;;;36.97;12.88;;;;;;;;;;5041376;28;20043;-84
2022/10/18 01:40:06;;;;;;;29.90;13.02;;;;;;;;;;5052089;28;20036;-85
2022/10/18 01:42:51;;;;;;;34.45;13.07;;;;;;;;;;5052681;28;20040;-84
2022/10/18 01:45:36;;;;;;;31.30;12.05;;;;;;;;;;5066164;28;20082;-84
2022/10/18 01:48:21;;;;;;;31.42;12.45;;;;;;;;;;5052400;28;20087;-85
2022/10/18 01:51:06;;;;;;;38.40;13.48;;;;;;;;;;5052013;28;20067;-85
2022/10/18 01:53:50;;;;;;;63.45;13.32;;;;;;;;;;5052328;28;20040;-84
2022/10/18 01:56:38;;;;;;;33.20;12.43;;;;;;;;;;5053566;28;20044;-84
2022/10/18 01:59:28;;;;;;;36.10;12.82;;;;;;;;;;5052642;28;20110;-84
2022/10/18 02:02:13;;;;;;;51.80;13.43;;;;;;;;;;5052699;28;20059;-84
2022/10/18 02:05:06;;;;;;;46.30;12.88;;;;;;;;;;5052275;28;20194;-84
2022/10/18 02:08:05;;;;;;;59.73;13.60;;;;;;;;;;5052168;28;20508;-84
2022/10/18 02:11:07;;;;;;;37.05;11.57;;;;;;;;;;5052126;28;20313;-84
2022/10/18 02:13:53;;;;;;;37.67;12.45;;;;;;;;;;5053191;28;20554;-84
2022/10/18 02:16:41;;;;;;;47.05;13.40;;;;;;;;;;5052231;28;20035;-84
2022/10/18 02:19:30;;;;;;;49.13;13.15;;;;;;;;;;5051971;28;20422;-84
2022/10/18 02:22:16;;;;;;;63.97;13.50;;;;;;;;;;5052504;28;20542;-84
2022/10/18 02:25:02;;;;;;;47.38;12.93;;;;;;;;;;5053035;28;20067;-84
2022/10/18 02:27:47;;;;;;;61.55;14.27;;;;;;;;;;5051653;28;20554;-84
2022/10/18 02:30:44;;;;;;;55.40;12.65;;;;;;;;;;5038021;28;20072;-84
2022/10/18 02:33:35;;;;;;;57.40;12.95;;;;;;;;;;5052172;28;20040;-84
2022/10/18 02:36:23;;;;;;;65.55;14.60;;;;;;;;;;5065191;28;20545;-84
2022/10/18 02:39:13;;;;;;;42.42;13.43;;;;;;;;;;5052390;28;20059;-86
2022/10/18 02:41:58;;;;;;;41.72;13.68;;;;;;;;;;5052308;28;20036;-84
2022/10/18 02:44:43;;;;;;;42.92;13.50;;;;;;;;;;5051455;28;20137;-84
2022/10/18 02:47:27;;;;;;;60.55;14.57;;;;;;;;;;5051992;28;20103;-84
2022/10/18 02:50:12;;;;;;;32.35;13.52;;;;;;;;;;5036886;28;20039;-84
2022/10/18 02:52:56;;;;;;;43.17;13.35;;;;;;;;;;5052502;28;20040;-84
2022/10/18 02:55:41;;;;;;;64.47;13.98;;;;;;;;;;5051593;28;20091;-84
2022/10/18 02:58:25;;;;;;;84.20;15.43;;;;;;;;;;5049933;28;20555;-84
2022/10/18 03:01:10;;;;;;;94.35;17.42;;;;;;;;;;5050769;28;20075;-85
2022/10/18 03:03:54;;;;;;;51.80;14.13;;;;;;;;;;5051190;28;20075;-84
2022/10/18 03:06:39;;;;;;;186.98;19.90;;;;;;;;;;5052121;28;20059;-84
2022/10/18 03:09:24;;;;;;;275.67;26.88;;;;;;;;;;5050523;28;20050;-85
2022/10/18 03:12:08;;;;;;;170.70;19.45;;;;;;;;;;5051142;28;20575;-85
2022/10/18 03:14:53;;;;;;;226.13;23.63;;;;;;;;;;5037302;28;20074;-84
2022/10/18 03:17:37;;;;;;;298.23;26.10;;;;;;;;;;5051035;28;20090;-84
2022/10/18 03:20:22;;;;;;;229.25;22.38;;;;;;;;;;5050152;28;20090;-85
2022/10/18 03:23:06;;;;;;;271.75;24.38;;;;;;;;;;5052118;28;20071;-84
2022/10/18 03:25:51;;;;;;;189.48;20.45;;;;;;;;;;5050974;28;20455;-84
2022/10/18 03:28:35;;;;;;;308.08;25.00;;;;;;;;;;5050536;28;20066;-85
2022/10/18 03:31:20;;;;;;;322.70;27.80;;;;;;;;;;5037189;28;20044;-85
2022/10/18 03:34:05;;;;;;;258.73;24.65;;;;;;;;;;5051994;28;20036;-84
2022/10/18 03:36:49;;;;;;;197.88;21.85;;;;;;;;;;5051456;28;20449;-84
2022/10/18 03:39:34;;;;;;;145.88;18.85;;;;;;;;;;5051264;28;20082;-84
2022/10/18 03:42:18;;;;;;;289.00;26.70;;;;;;;;;;5051173;28;20535;-85
2022/10/18 03:45:03;;;;;;;306.15;26.35;;;;;;;;;;5050884;28;20444;-84
2022/10/18 03:47:48;;;;;;;373.65;29.42;;;;;;;;;;5050824;28;20048;-84
2022/10/18 03:50:32;;;;;;;370.55;30.05;;;;;;;;;;5051226;28;20112;-84
2022/10/18 03:53:17;;;;;;;399.20;29.20;;;;;;;;;;5051637;28;20044;-84
2022/10/18 03:56:01;;;;;;;361.63;29.08;;;;;;;;;;5050498;28;20492;-85
2022/10/18 03:58:46;;;;;;;260.58;22.13;;;;;;;;;;5051230;28;20060;-85
2022/10/18 04:01:30;;;;;;;313.80;25.65;;;;;;;;;;5035892;28;20048;-84
2022/10/18 04:04:15;;;;;;;368.05;28.13;;;;;;;;;;5035880;28;20044;-85
2022/10/18 04:07:00;;;;;;;307.05;23.98;;;;;;;;;;5050483;28;20424;-85
2022/10/18 04:09:44;;;;;;;273.73;22.02;;;;;;;;;;5053847;28;20496;-84
2022/10/18 04:12:29;;;;;;;296.48;23.35;;;;;;;;;;5054766;28;20043;-84
2022/10/18 04:15:13;;;;;;;342.85;25.17;;;;;;;;;;5054517;28;20393;-84
2022/10/18 04:17:58;;;;;;;250.25;20.25;;;;;;;;;;5055456;28;20043;-84
2022/10/18 04:20:43;;;;;;;292.77;23.40;;;;;;;;;;5053694;28;20380;-84
2022/10/18 04:23:27;;;;;;;347.65;23.67;;;;;;;;;;5054162;28;20044;-85
2022/10/18 04:26:12;;;;;;;57.63;11.50;;;;;;;;;;5041760;28;20076;-85
2022/10/18 04:28:56;;;;;;;334.40;25.75;;;;;;;;;;5054278;28;20111;-85
2022/10/18 04:31:41;;;;;;;272.45;21.17;;;;;;;;;;5054706;28;20075;-84
2022/10/18 04:34:25;;;;;;;265.73;20.83;;;;;;;;;;5053501;28;20070;-86
2022/10/18 04:37:10;;;;;;;273.08;22.25;;;;;;;;;;5055037;28;20070;-84
2022/10/18 04:39:55;;;;;;;320.75;23.23;;;;;;;;;;5053717;28;20413;-84
2022/10/18 04:42:39;;;;;;;240.05;20.42;;;;;;;;;;5053145;28;20032;-84
2022/10/18 04:45:24;;;;;;;233.73;18.67;;;;;;;;;;5026351;28;20401;-84
2022/10/18 04:48:08;;;;;;;244.68;20.55;;;;;;;;;;5053576;28;20052;-84
2022/10/18 04:50:53;;;;;;;180.07;16.83;;;;;;;;;;5053905;28;20040;-84
2022/10/18 04:53:38;;;;;;;260.75;19.48;;;;;;;;;;5054130;28;20027;-84
2022/10/18 04:56:23;;;;;;;229.13;21.08;;;;;;;;;;5054696;28;20044;-84
2022/10/18 04:59:08;;;;;;;194.75;16.50;;;;;;;;;;5057570;28;20051;-85
2022/10/18 05:01:52;;;;;;;183.95;17.52;;;;;;;;;;5070297;28;20089;-84
2022/10/18 05:04:37;;;;;;;114.70;14.13;;;;;;;;;;5053571;28;20523;-84
2022/10/18 05:07:21;;;;;;;132.25;13.73;;;;;;;;;;5067416;28;20508;-84
2022/10/18 05:10:06;;;;;;;129.13;15.40;;;;;;;;;;5048305;28;20063;-84
2022/10/18 05:12:51;;;;;;;90.47;13.27;;;;;;;;;;5052757;28;20044;-83
2022/10/18 05:15:35;;;;;;;116.35;13.68;;;;;;;;;;5055062;28;20126;-85
2022/10/18 05:18:20;;;;;;;104.47;13.75;;;;;;;;;;5057699;28;20117;-84
2022/10/18 05:21:04;;;;;;;135.57;16.02;;;;;;;;;;5052537;28;20036;-85
2022/10/18 05:23:49;;;;;;;83.95;13.45;;;;;;;;;;5064784;28;20065;-85
2022/10/18 05:26:33;;;;;;;86.28;12.68;;;;;;;;;;5067196;28;20047;-85
2022/10/18 05:29:18;;;;;;;132.82;15.25;;;;;;;;;;5047799;28;20102;-85
2022/10/18 05:32:03;;;;;;;105.07;12.75;;;;;;;;;;5054155;28;20039;-84
2022/10/18 05:34:47;;;;;;;146.10;14.75;;;;;;;;;;5065529;28;20488;-85
2022/10/18 05:37:32;;;;;;;183.63;15.75;;;;;;;;;;5064950;28;20404;-85
2022/10/18 05:40:16;;;;;;;143.48;13.40;;;;;;;;;;5066245;28;20036;-84
2022/10/18 05:43:01;;;;;;;219.95;17.17;;;;;;;;;;5066067;28;20397;-84
2022/10/18 05:45:52;;;;;;;170.32;16.30;;;;;;;;;;5064358;28;20031;-85
2022/10/18 05:48:36;;;;;;;162.10;15.70;;;;;;;;;;5064550;28;20112;-85
2022/10/18 05:51:21;;;;;;;116.20;12.63;;;;;;;;;;5066879;28;20040;-84
2022/10/18 05:54:05;;;;;;;166.95;14.70;;;;;;;;;;5063152;28;20047;-84
2022/10/18 05:56:50;;;;;;;37.63;9.80;;;;;;;;;;5071390;28;20417;-84
2022/10/18 05:59:34;;;;;;;52.70;10.43;;;;;;;;;;5067107;28;20401;-84
2022/10/18 06:02:19;;;;;;;152.43;14.77;;;;;;;;;;5052563;28;20094;-84
2022/10/18 06:05:03;;;;;;;122.68;13.35;;;;;;;;;;5062401;28;20043;-85
2022/10/18 06:07:48;;;;;;;149.85;14.35;;;;;;;;;;5066118;28;20082;-84
2022/10/18 06:10:32;;;;;;;116.32;12.23;;;;;;;;;;5060742;28;20036;-84
2022/10/18 06:13:17;;;;;;;90.53;11.55;;;;;;;;;;5059771;28;20504;-84
2022/10/18 06:16:02;;;;;;;110.53;12.52;;;;;;;;;;5052277;28;20036;-84
2022/10/18 06:18:48;;;;;;;133.98;13.38;;;;;;;;;;5047303;28;20401;-85
2022/10/18 06:21:32;;;;;;;87.05;12.23;;;;;;;;;;5052611;28;20036;-84
2022/10/18 06:24:17;;;;;;;147.38;14.35;;;;;;;;;;5066042;28;20044;-84
2022/10/18 06:27:07;;;;;;;79.97;11.02;;;;;;;;;;5050326;28;20040;-84
2022/10/18 06:29:52;;;;;;;78.18;10.70;;;;;;;;;;5065311;28;20428;-84
2022/10/18 06:32:36;;;;;;;48.25;9.40;;;;;;;;;;5052391;28;20062;-84
2022/10/18 06:35:21;;;;;;;45.17;8.77;;;;;;;;;;5040504;28;20095;-83
2022/10/18 06:38:05;;;;;;;25.55;8.43;;;;;;;;;;5051912;28;20051;-83
2022/10/18 06:40:50;;;;;;;38.80;8.88;;;;;;;;;;5052271;28;20040;-84
2022/10/18 06:43:35;;;;;;;58.60;8.85;;;;;;;;;;5051522;28;20040;-84
2022/10/18 06:46:20;;;;;;;42.88;8.07;;;;;;;;;;5065475;28;20386;-84
2022/10/18 06:49:04;;;;;;;87.88;10.10;;;;;;;;;;5058351;28;20102;-84
2022/10/18 06:51:49;;;;;;;118.13;11.38;;;;;;;;;;5078519;28;20040;-84
2022/10/18 06:54:33;;;;;;;92.28;10.73;;;;;;;;;;5064594;28;20488;-84
2022/10/18 06:57:18;;;;;;;49.28;8.88;;;;;;;;;;5050751;28;20417;-84
2022/10/18 07:00:03;;;;;;;112.93;11.63;;;;;;;;;;5045296;28;20070;-84
2022/10/18 07:02:48;;;;;;;48.20;8.70;;;;;;;;;;5052037;28;20106;-84
2022/10/18 07:05:33;;;;;;;74.38;11.00;;;;;;;;;;5052499;28;20570;-83
2022/10/18 07:08:17;;;;;;;106.30;11.93;;;;;;;;;;5052264;28;20044;-84
2022/10/18 07:11:02;;;;;;;32.72;8.40;;;;;;;;;;5052048;28;20043;-84
2022/10/18 07:13:47;;;;;;;32.83;8.65;;;;;;;;;;5047163;28;20385;-85
2022/10/18 07:16:32;;;;;;;28.13;8.23;;;;;;;;;;5052406;28;20047;-84
2022/10/18 07:19:17;;;;;;;45.10;9.85;;;;;;;;;;5052248;28;20393;-85
2022/10/18 07:22:01;;;;;;;51.22;8.85;;;;;;;;;;5050880;28;20043;-83
2022/10/18 07:24:46;;;;;;;29.23;8.48;;;;;;;;;;5046733;28;20036;-84
2022/10/18 07:27:30;;;;;;;34.00;8.57;;;;;;;;;;5065138;28;20052;-83
2022/10/18 07:30:15;;;;;;;82.80;9.20;;;;;;;;;;5045417;28;20448;-84
2022/10/18 07:32:59;;;;;;;29.27;8.52;;;;;;;;;;5050797;28;20055;-84
2022/10/18 07:35:44;;;;;;;56.53;10.13;;;;;;;;;;5065492;28;20035;-84
2022/10/18 07:38:28;;;;;;;82.68;9.40;;;;;;;;;;5052043;28;20083;-83
2022/10/18 07:41:13;;;;;;;44.67;8.15;;;;;;;;;;5051640;28;20063;-85
2022/10/18 07:43:59;;;;;;;64.78;8.98;;;;;;;;;;5067443;28;20036;-84
2022/10/18 07:46:43;;;;;;;67.00;9.13;;;;;;;;;;5056169;28;20051;-83
2022/10/18 07:49:28;;;;;;;39.00;7.80;;;;;;;;;;5069524;28;20143;-83
2022/10/18 07:52:12;;;;;;;99.82;10.00;;;;;;;;;;5055584;28;20045;-83
2022/10/18 07:54:57;;;;;;;59.10;10.25;;;;;;;;;;5055189;28;20401;-84
2022/10/18 07:57:47;;;;;;;53.17;8.68;;;;;;;;;;5055672;28;20071;-84
2022/10/18 08:00:32;;;;;;;32.65;8.13;;;;;;;;;;5055825;28;20040;-84
2022/10/18 08:03:16;;;;;;;16.85;6.63;;;;;;;;;;5055551;28;20040;-84
2022/10/18 08:06:01;;;;;;;17.20;6.75;;;;;;;;;;5055527;28;20535;-84
2022/10/18 08:08:46;;;;;;;19.30;6.57;;;;;;;;;;5055606;28;20145;-83
2022/10/18 08:11:31;;;;;;;16.50;6.90;;;;;;;;;;5055752;28;20396;-84
2022/10/18 08:14:16;;;;;;;15.80;7.25;;;;;;;;;;5068513;28;20082;-84
2022/10/18 08:17:00;;;;;;;12.20;6.60;;;;;;;;;;5055182;28;20044;-84
2022/10/18 08:19:45;;;;;;;12.82;6.95;;;;;;;;;;5054915;28;20040;-84
2022/10/18 08:22:30;;;;;;;11.63;6.18;;;;;;;;;;5055469;28;20028;-84
2022/10/18 08:25:14;;;;;;;10.93;7.05;;;;;;;;;;5055120;28;20103;-84
2022/10/18 08:28:00;;;;;;;13.45;6.95;;;;;;;;;;5041097;28;20076;-84
2022/10/18 08:30:45;;;;;;;8.90;5.50;;;;;;;;;;5068495;28;20052;-84
2022/10/18 08:33:29;;;;;;;9.13;5.95;;;;;;;;;;5054521;28;20048;-84
2022/10/18 08:36:15;;;;;;;12.80;5.97;;;15.60;99.90;;;;;;5053921;28;20461;-84
2022/10/18 08:39:02;;;;;;;9.40;6.03;;;;;;;;;;5053962;28;20136;-85
2022/10/18 08:42:23;;;;;;;8.38;5.47;;;16.10;99.90;;;;;;5054089;28;20123;-84
2022/10/18 08:45:10;;;;;;;8.70;5.40;;;;;;;;;;5067875;28;20055;-84
2022/10/18 08:47:56;;;;;;;8.77;4.80;;;;;;;;;;5068300;28;20125;-84
2022/10/18 08:50:41;;;;;;;8.05;4.47;;;;;;;;;;5055072;28;20027;-84
2022/10/18 08:53:33;;;;;;;9.13;5.00;;;;;;;;;;5054898;28;20075;-84
2022/10/18 08:56:22;;;;;;;9.57;5.45;;;;;;;;;;5054608;28;20040;-84
2022/10/18 08:59:11;;;;;;;7.78;4.13;;;;;;;;;;5067802;28;20168;-84
2022/10/18 09:02:10;;;;;;;10.50;4.35;;;;;;;;;;5067947;28;20512;-84
2022/10/18 09:04:55;;;;;;;9.63;4.90;;;;;;;;;;5068136;28;20044;-83
2022/10/18 09:07:54;;;;;;;7.40;3.92;;;;;;;;;;5067990;28;20488;-84
2022/10/18 09:10:44;;;;;;;6.65;3.78;;;;;;;;;;5067750;28;20205;-84
2022/10/18 09:13:57;;;;;;;9.20;4.22;;;15.50;99.90;;;;;;5067818;28;20118;-84
2022/10/18 09:16:49;;;;;;;7.68;3.70;;;;;;;;;;5054584;28;20397;-84
2022/10/18 09:19:37;;;;;;;10.40;4.20;;;;;;;;;;5067689;28;20040;-84
2022/10/18 09:22:31;;;;;;;6.30;3.60;;;;;;;;;;5053908;28;20044;-85
2022/10/18 09:25:34;;;;;;;6.63;3.83;;;;;;;;;;5067170;28;20040;-85
2022/10/18 09:28:39;;;;;;;7.75;3.65;;;;;;;;;;5067127;28;20087;-84
2022/10/18 09:31:30;;;;;;;8.80;4.35;;;;;;;;;;5045839;28;20400;-85
2022/10/18 09:34:24;;;;;;;7.20;3.67;;;;;;;;;;5066960;28;20500;-85
2022/10/18 09:37:13;;;;;;;9.60;3.22;;;;;;;;;;5067123;28;20048;-85
2022/10/18 09:40:15;;;;;;;9.90;3.00;;;;;;;;;;5054132;28;20056;-84
2022/10/18 09:43:02;;;;;;;7.57;2.30;;;;;;;;;;5067096;28;20090;-85
2022/10/18 09:45:47;;;;;;;8.38;2.50;;;;;;;;;;5054216;28;20135;-84
2022/10/18 09:48:38;;;;;;;6.57;3.22;;;;;;;;;;5053861;28;20048;-84
2022/10/18 09:51:25;;;;;;;5.78;1.88;;;;;;;;;;5053519;28;20040;-85
2022/10/18 09:54:28;;;;;;;7.00;1.85;;;;;;;;;;5066773;28;20075;-85
2022/10/18 09:57:17;;;;;;;6.40;2.72;;;;;;;;;;5066238;28;20067;-85
2022/10/18 10:00:03;;;;;;;8.70;1.70;;;;;;;;;;5053698;28;20031;-85
2022/10/18 10:02:48;;;;;;;6.15;1.58;;;;;;;;;;5053916;28;20086;-85
2022/10/18 10:05:33;;;;;;;11.27;1.80;;;;;;;;;;5052778;28;20055;-86
2022/10/18 10:08:17;;;;;;;9.25;1.85;;;;;;;;;;5066378;28;20056;-85
2022/10/18 10:11:02;;;;;;;7.03;1.50;;;;;;;;;;5066856;28;20031;-86
2022/10/18 10:13:47;;;;;;;12.88;2.40;;;;;;;;;;5052420;28;20060;-85
2022/10/18 10:16:32;;;;;;;7.25;1.38;;;;;;;;;;5053007;28;20449;-85
2022/10/18 10:19:22;;;;;;;8.63;1.58;;;;;;;;;;5066028;28;20044;-85
2022/10/18 10:22:11;;;;;;;11.98;2.05;;;;;;;;;;5053267;28;20059;-86
2022/10/18 10:24:56;;;;;;;8.23;1.65;;;;;;;;;;5066336;28;20078;-85
2022/10/18 10:27:44;;;;;;;9.30;1.90;;;;;;;;;;5052135;28;20043;-85
2022/10/18 10:30:33;;;;;;;9.07;1.45;;;;;;;;;;5065978;28;20044;-84
2022/10/18 10:33:38;;;;;;;8.32;2.20;;;;;;;;;;5052676;28;20028;-85
2022/10/18 10:36:23;;;;;;;10.60;2.05;;;;;;;;;;5052568;28;20530;-85
2022/10/18 10:39:11;;;;;;;8.13;1.90;;;;;;;;;;5052014;28;20051;-84
2022/10/18 10:41:57;;;;;;;14.82;2.92;;;;;;;;;;5065985;28;20052;-84
2022/10/18 10:44:51;;;;;;;8.75;1.95;;;;;;;;;;5052721;28;20031;-85
2022/10/18 10:47:36;;;;;;;6.28;1.48;;;;;;;;;;5065605;28;20044;-84
2022/10/18 10:50:23;;;;;;;7.63;1.80;;;;;;;;;;5065428;28;20037;-85
2022/10/18 10:53:21;;;;;;;7.22;1.70;;;;;;;;;;5052964;28;20036;-84
2022/10/18 10:56:06;;;;;;;7.55;2.22;;;;;;;;;;5052696;28;20059;-84
2022/10/18 10:58:52;;;;;;;7.25;1.38;;;;;;;;;;5065390;28;20056;-84
2022/10/18 11:01:36;;;;;;;10.32;1.30;;;;;;;;;;5052218;28;20064;-84
2022/10/18 11:04:25;;;;;;;11.57;1.40;;;;;;;;;;5051446;28;20040;-85
2022/10/18 11:07:28;;;;;;;6.88;1.58;;;;;;;;;;5065506;28;20097;-86
2022/10/18 11:10:15;;;;;;;5.20;1.30;;;;;;;;;;5052398;28;20516;-84
2022/10/18 11:13:17;;;;;;;5.25;1.48;;;;;;;;;;5065718;28;20040;-84
2022/10/18 11:16:11;;;;;;;7.63;1.08;;;;;;;;;;5052581;28;20036;-85
2022/10/18 11:18:57;;;;;;;9.77;1.38;;;;;;;;;;5064620;28;20044;-87
2022/10/18 11:21:42;;;;;;;8.85;1.73;;;;;;;;;;5065240;28;20048;-84
2022/10/18 11:24:27;;;;;;;5.85;1.02;;;;;;;;;;5064990;28;20060;-86
2022/10/18 11:27:11;;;;;;;7.32;1.35;;;;;;;;;;5051254;28;20146;-84
2022/10/18 11:29:59;;;;;;;8.27;1.40;;;;;;;;;;5065628;28;20071;-86
2022/10/18 11:32:49;;;;;;;7.45;1.45;;;;;;;;;;5064935;28;20059;-84
2022/10/18 11:35:34;;;;;;;8.30;1.35;;;;;;;;;;5051940;28;20035;-84
2022/10/18 11:38:25;;;;;;;3.40;1.15;;;;;;;;;;5052120;28;20504;-84
2022/10/18 11:41:25;;;;;;;7.05;1.30;;;;;;;;;;5065349;28;20074;-84
2022/10/18 11:44:09;;;;;;;11.27;1.67;;;;;;;;;;5052407;28;20044;-83
2022/10/18 11:47:20;;;;;;;6.15;1.23;;;;;;;;;;5052071;28;20063;-84
2022/10/18 11:50:05;;;;;;;7.28;2.65;;;;;;;;;;5050747;28;20405;-84
2022/10/18 11:52:49;;;;;;;9.70;1.10;;;;;;;;;;5051959;28;20047;-84
2022/10/18 11:55:37;;;;;;;6.68;1.10;;;;;;;;;;5051825;28;20036;-83
2022/10/18 11:58:42;;;;;;;6.55;1.52;;;;;;;;;;5051684;28;20056;-84
2022/10/18 12:01:50;;;;;;;7.57;1.60;;;;;;;;;;5051791;28;20036;-84
2022/10/18 12:04:35;;;;;;;7.70;1.30;;;;;;;;;;5051694;28;20068;-84
2022/10/18 12:07:22;;;;;;;4.95;1.15;;;;;;;;;;5051870;28;20492;-84
2022/10/18 12:10:09;;;;;;;6.95;1.40;;;;;;;;;;5065209;28;20043;-84
2022/10/18 12:13:00;;;;;;;8.73;1.80;;;;;;;;;;5051952;28;20035;-83
2022/10/18 12:15:51;;;;;;;3.65;1.40;;;;;;;;;;5064638;28;20285;-83
2022/10/18 12:18:40;;;;;;;6.13;1.42;;;;;;;;;;5051516;28;20043;-84
2022/10/18 12:21:26;;;;;;;5.05;1.20;;;;;;;;;;5051892;28;20583;-84
2022/10/18 12:24:15;;;;;;;6.68;1.23;;;;;;;;;;5064925;28;20032;-84
2022/10/18 12:27:00;;;;;;;5.30;1.20;;;;;;;;;;5051829;28;20496;-84
2022/10/18 12:29:58;;;;;;;4.97;1.17;;;;;;;;;;5053205;28;20067;-84
2022/10/18 12:32:43;;;;;;;3.55;0.98;;;;;;;;;;5054987;28;20032;-85
2022/10/18 12:35:30;;;;;;;4.53;1.40;;;;;;;;;;5043019;28;20135;-86
2022/10/18 12:38:21;;;;;;;4.07;1.48;;;;;;;;;;5055127;28;20040;-83
2022/10/18 12:41:06;;;;;;;8.52;1.67;;;;;;;;;;5068462;28;20098;-84
2022/10/18 12:43:52;;;;;;;11.75;1.92;;;;;;;;;;5068292;28;20032;-84
2022/10/18 12:46:43;;;;;;;7.40;1.48;;;;;;;;;;5067814;28;20067;-84
2022/10/18 12:49:32;;;;;;;9.00;1.60;;;;;;;;;;5055220;28;20063;-84
2022/10/18 12:52:22;;;;;;;7.05;1.40;;;;;;;;;;5068386;28;20044;-84
2022/10/18 12:55:27;;;;;;;8.80;2.42;;;;;;;;;;5055112;28;20444;-84
2022/10/18 12:58:15;;;;;;;7.28;1.65;;;;;;;;;;5054804;28;20087;-83
2022/10/18 13:01:01;;;;;;;4.43;1.10;;;;;;;;;;5054937;28;20086;-84
2022/10/18 13:03:54;;;;;;;5.22;1.40;;;;;;;;;;5054393;28;20078;-84
2022/10/18 13:06:57;;;;;;;4.47;1.10;;;;;;;;;;5054444;28;20036;-84
2022/10/18 13:10:02;;;;;;;3.78;1.25;;;;;;;;;;5054334;28;20401;-84
2022/10/18 13:12:47;;;;;;;11.43;2.35;;;;;;;;;;5054165;28;20095;-84
2022/10/18 13:15:40;;;;;;;4.82;1.17;;;;;;;;;;5054560;28;20056;-84
2022/10/18 13:18:31;;;;;;;5.80;1.20;;;;;;;;;;5054698;28;20097;-86
2022/10/18 13:21:46;;;;;;;8.73;2.05;;;16.00;99.90;;;;;;5067677;28;20044;-84
2022/10/18 13:25:05;;;;;;;5.85;1.52;;;16.00;99.90;;;;;;5067719;28;20051;-84
2022/10/18 13:28:16;;;;;;;9.05;1.50;;;16.00;99.90;;;;;;5045254;28;20060;-84
2022/10/18 13:31:01;;;;;;;5.28;1.27;;;;;;;;;;5067477;28;20452;-84
2022/10/18 13:33:46;;;;;;;6.80;1.40;;;;;;;;;;5053704;28;20028;-83
2022/10/18 13:36:32;;;;;;;5.20;1.30;;;;;;;;;;5067197;28;20036;-85
2022/10/18 13:39:20;;;;;;;6.57;1.30;;;;;;;;;;5054169;28;20086;-84
2022/10/18 13:42:13;;;;;;;5.10;1.17;;;;;;;;;;5053310;28;20035;-84
2022/10/18 13:45:31;;;;;;;7.25;1.52;;;17.00;99.90;;;;;;5053585;28;20056;-84
2022/10/18 13:48:28;;;;;;;7.72;1.42;;;;;;;;;;5053763;28;20060;-84
2022/10/18 13:51:16;;;;;;;7.40;1.70;;;;;;;;;;5067085;28;20086;-84
2022/10/18 13:54:04;;;;;;;9.18;1.38;;;;;;;;;;5053538;28;20182;-84
2022/10/18 13:57:18;;;;;;;10.70;1.58;;;;;;;;;;5053423;28;20447;-84
2022/10/18 14:00:08;;;;;;;9.20;1.60;;;;;;;;;;5051287;28;20090;-84
2022/10/18 14:03:20;;;;;;;5.13;1.73;;;16.20;99.90;;;;;;5053425;28;20029;-84
2022/10/18 14:06:15;;;;;;;7.40;1.20;;;;;;;;;;5066867;28;20492;-84
2022/10/18 14:09:19;;;;;;;5.78;1.73;;;15.70;99.90;;;;;;5053118;28;21044;-85
2022/10/18 14:12:25;;;;;;;5.95;1.00;;;15.70;99.90;;;;;;5052938;28;20036;-83
2022/10/18 14:15:15;;;;;;;6.25;1.30;;;;;;;;;;5053562;28;20040;-83
2022/10/18 14:18:18;;;;;;;8.02;1.85;;;;;;;;;;5052655;28;20048;-84
2022/10/18 14:21:16;;;;;;;6.95;1.60;;;;;;;;;;5052516;28;20571;-85
2022/10/18 14:24:00;;;;;;;6.15;1.40;;;;;;;;;;5065556;28;20040;-85
2022/10/18 14:26:45;;;;;;;5.22;1.40;;;;;;;;;;5051483;28;20047;-83
2022/10/18 14:29:30;;;;;;;7.38;1.17;;;;;;;;;;5051440;28;20052;-83
2022/10/18 14:32:28;;;;;;;8.23;1.80;;;;;;;;;;5050265;28;20162;-83
2022/10/18 14:35:19;;;;;;;10.73;1.70;;;;;;;;;;5047016;28;20081;-83
2022/10/18 14:38:05;;;;;;;5.68;1.55;;;;;;;;;;5049561;28;20040;-86
2022/10/18 14:41:03;;;;;;;2.15;1.02;;;;;;;;;;5063321;28;20043;-83
2022/10/18 14:43:48;;;;;;;4.95;1.50;;;;;;;;;;5062634;28;20032;-84
2022/10/18 14:46:33;;;;;;;5.97;1.58;;;;;;;;;;5049086;28;20659;-83
2022/10/18 14:49:18;;;;;;;6.68;1.42;;;;;;;;;;5053128;28;20542;-84
2022/10/18 14:52:03;;;;;;;10.65;1.65;;;;;;;;;;5050752;28;20059;-85
2022/10/18 14:54:48;;;;;;;4.97;1.17;;;;;;;;;;5051854;28;20072;-85
2022/10/18 14:57:34;;;;;;;3.53;1.17;;;;;;;;;;5050948;28;20535;-84
2022/10/18 15:00:33;;;;;;;8.07;1.65;;;;;;;;;;5049421;28;20082;-83
2022/10/18 15:03:18;;;;;;;7.18;1.48;;;;;;;;;;5045060;28;20436;-85
2022/10/18 15:06:04;;;;;;;6.03;1.20;;;;;;;;;;5050440;28;20118;-84
2022/10/18 15:08:52;;;;;;;6.60;1.40;;;;;;;;;;5050511;28;20106;-85
2022/10/18 15:11:39;;;;;;;5.68;1.23;;;;;;;;;;5051479;28;20028;-84
2022/10/18 15:14:24;;;;;;;8.20;1.40;;;;;;;;;;5052033;28;20128;-84
2022/10/18 15:17:15;;;;;;;7.40;1.58;;;;;;;;;;5046496;28;20087;-87
2022/10/18 15:20:01;;;;;;;10.75;1.50;;;;;;;;;;5050082;28;20128;-84
2022/10/18 15:22:46;;;;;;;9.05;1.95;;;;;;;;;;5050986;28;20108;-84
2022/10/18 15:25:33;;;;;;;9.80;1.90;;;;;;;;;;5045515;28;20032;-85
2022/10/18 15:28:28;;;;;;;6.22;1.45;;;;;;;;;;5050968;28;20048;-84
2022/10/18 15:31:21;;;;;;;9.52;2.20;;;;;;;;;;5051669;28;20039;-87
2022/10/18 15:34:18;;;;;;;9.43;1.70;;;;;;;;;;5054905;28;20036;-84
2022/10/18 15:37:15;;;;;;;11.20;2.10;;;;;;;;;;5050319;28;20440;-84
2022/10/18 15:40:35;;;;;;;9.82;2.20;;;;;;;;;;5051867;28;20066;-83
2022/10/18 15:43:23;;;;;;;6.82;1.67;;;;;;;;;;5030360;28;20048;-83
2022/10/18 15:46:27;;;;;;;21.13;2.47;;;;;;;;;;5051693;28;20060;-84
2022/10/18 15:49:24;;;;;;;7.38;1.70;;;;;;;;;;5064564;28;20076;-84
2022/10/18 15:52:27;;;;;;;6.95;2.03;;;;;;;;;;5051177;28;20113;-84
2022/10/18 15:55:30;;;;;;;3.38;1.48;;;;;;;;;;5050151;28;20031;-84
2022/10/18 15:58:25;;;;;;;8.25;1.95;;;14.10;99.90;;;;;;5050503;28;20052;-83
2022/10/18 16:01:15;;;;;;;10.32;2.90;;;;;;;;;;5054540;28;20071;-83
2022/10/18 16:04:00;;;;;;;6.65;1.40;;;;;;;;;;5051331;28;20459;-85
2022/10/18 16:06:45;;;;;;;8.77;1.33;;;;;;;;;;5055443;28;20028;-84
2022/10/18 16:09:29;;;;;;;4.80;1.35;;;;;;;;;;5055488;28;20052;-84
2022/10/18 16:12:14;;;;;;;6.80;1.77;;;;;;;;;;5048993;28;20036;-83
2022/10/18 16:14:58;;;;;;;8.98;1.27;;;;;;;;;;5055072;28;20086;-85
2022/10/18 16:17:43;;;;;;;11.98;2.55;;;;;;;;;;5055591;28;20044;-82
2022/10/18 16:20:27;;;;;;;10.65;1.30;;;;;;;;;;5058200;28;20091;-83
2022/10/18 16:23:32;;;;;;;6.68;1.48;;;;;;;;;;5054620;28;20083;-83
2022/10/18 16:26:17;;;;;;;5.25;1.10;;;;;;;;;;5045263;28;20032;-83
2022/10/18 16:29:03;;;;;;;5.35;1.08;;;;;;;;;;5054407;28;20118;-83